Time;durP1;ratioP1;P1;durP2;ratioP2;P2;SDS_P1;SDS_P2;PMS_P1;PMS_P2;Temp;Humidity;BMP_temperature;BMP_pressure;BME280_temperature;BME280_humidity;BME280_pressure;Samples;Min_cycle;Max_cycle;Signal;HPM_P1;HPM_P2
2023/12/19 00:02:05;;;;;;;18.23;8.97;;;;;5.90;101961.00;;;;5043831;28;20228;-68
2023/12/19 00:04:51;;;;;;;15.47;8.23;;;;;5.80;101962.00;;;;5042453;28;20299;-70
2023/12/19 00:07:40;;;;;;;16.40;9.03;;;;;5.90;101957.00;;;;5044286;28;20285;-69
2023/12/19 00:10:26;;;;;;;16.47;9.13;;;;;5.90;101958.00;;;;5044735;28;20435;-68
2023/12/19 00:13:13;;;;;;;14.57;8.73;;;;;5.90;101959.00;;;;5043563;28;20423;-70
2023/12/19 00:15:59;;;;;;;18.67;8.43;;;;;5.90;101963.00;;;;5032331;28;20300;-69
2023/12/19 00:18:46;;;;;;;16.03;7.87;;;;;5.90;101964.00;;;;5024029;28;20253;-70
2023/12/19 00:21:32;;;;;;;18.17;8.13;;;;;5.90;101962.00;;;;5023928;28;20237;-72
2023/12/19 00:24:20;;;;;;;18.83;8.93;;;;;5.90;101959.00;;;;5019387;28;20318;-70
2023/12/19 00:27:06;;;;;;;15.50;8.67;;;;;5.90;101956.00;;;;5044745;28;20232;-67
2023/12/19 00:29:53;;;;;;;18.07;8.57;;;;;6.00;101962.00;;;;5037792;28;20232;-69
2023/12/19 00:32:39;;;;;;;13.83;8.70;;;;;5.90;101957.00;;;;5037646;28;20303;-67
2023/12/19 00:35:26;;;;;;;15.57;7.70;;;;;5.90;101949.00;;;;5044280;28;20228;-68
2023/12/19 00:38:12;;;;;;;15.37;7.83;;;;;5.90;101953.00;;;;5047336;28;20244;-69
2023/12/19 00:41:01;;;;;;;17.10;8.03;;;;;5.90;101956.00;;;;5042904;28;20247;-70
2023/12/19 00:43:47;;;;;;;12.27;8.43;;;;;6.00;101951.00;;;;5038983;28;20248;-70
2023/12/19 00:46:33;;;;;;;14.03;8.23;;;;;5.90;101959.00;;;;5041816;28;20615;-70
2023/12/19 00:49:20;;;;;;;15.60;8.87;;;;;5.90;101955.00;;;;5035004;28;20228;-70
2023/12/19 00:52:08;;;;;;;16.03;8.23;;;;;6.00;101966.00;;;;5038997;28;20233;-70
2023/12/19 00:54:55;;;;;;;11.87;7.90;;;;;6.00;101959.00;;;;5037180;28;20229;-69
2023/12/19 00:57:43;;;;;;;17.43;9.43;;;;;6.00;101956.00;;;;5041674;28;20252;-69
2023/12/19 01:00:30;;;;;;;16.03;8.93;;;;;6.00;101934.00;;;;5040857;28;20372;-69
2023/12/19 01:03:16;;;;;;;17.27;8.57;;;;;6.00;101942.00;;;;5041527;28;20286;-70
2023/12/19 01:06:03;;;;;;;16.80;8.77;;;;;6.00;101931.00;;;;5043104;28;20360;-70
2023/12/19 01:08:49;;;;;;;16.17;8.17;;;;;6.00;101928.00;;;;5043570;28;20248;-70
2023/12/19 01:11:36;;;;;;;18.67;9.03;;;;;6.00;101927.00;;;;5042169;28;20679;-70
2023/12/19 01:14:24;;;;;;;18.63;9.63;;;;;6.00;101921.00;;;;5041027;28;20746;-70
2023/12/19 01:17:10;;;;;;;17.77;8.90;;;;;5.90;101913.00;;;;5041361;28;20734;-71
2023/12/19 01:19:56;;;;;;;19.80;8.83;;;;;6.00;101915.00;;;;5041141;28;21688;-69
2023/12/19 01:22:44;;;;;;;15.53;8.73;;;;;6.00;101886.00;;;;5036269;28;20314;-70
2023/12/19 01:25:31;;;;;;;22.13;9.47;;;;;6.00;101887.00;;;;5039201;28;20788;-70
2023/12/19 01:28:18;;;;;;;17.10;9.10;;;;;6.10;101890.00;;;;5035673;28;20225;-69
2023/12/19 01:31:06;;;;;;;17.20;9.73;;;;;6.00;101870.00;;;;5035931;28;20235;-72
2023/12/19 01:33:53;;;;;;;21.67;9.20;;;;;6.00;101870.00;;;;5041040;28;20355;-70
2023/12/19 01:36:41;;;;;;;18.63;8.77;;;;;6.00;101860.00;;;;5043830;28;20243;-69
2023/12/19 01:39:41;;;;;;;18.07;8.83;;;;;5.90;101870.00;;;;5040104;28;20220;-71
2023/12/19 01:42:28;;;;;;;21.83;9.33;;;;;6.00;101878.00;;;;5043183;28;20232;-68
2023/12/19 01:45:14;;;;;;;19.43;9.77;;;;;5.90;101887.00;;;;5038558;28;20228;-70
2023/12/19 01:48:02;;;;;;;19.33;9.77;;;;;6.00;101889.00;;;;5038428;28;20232;-70
2023/12/19 01:50:48;;;;;;;17.60;9.63;;;;;6.00;101864.00;;;;5041198;28;21047;-69
2023/12/19 01:53:36;;;;;;;19.43;9.30;;;;;6.00;101861.00;;;;5014644;28;20306;-70
2023/12/19 01:56:24;;;;;;;22.33;10.33;;;;;6.00;101872.00;;;;5042638;28;20282;-69
2023/12/19 01:59:11;;;;;;;18.73;10.30;;;;;6.00;101871.00;;;;5031367;28;20259;-70
2023/12/19 02:01:58;;;;;;;18.00;9.03;;;;;6.00;101863.00;;;;5032215;28;20269;-71
2023/12/19 02:04:45;;;;;;;19.17;9.87;;;;;6.00;101861.00;;;;5038394;28;20279;-69
2023/12/19 02:07:32;;;;;;;26.67;9.87;;;;;6.00;101870.00;;;;5042092;28;20749;-70
2023/12/19 02:10:20;;;;;;;18.17;8.57;;;;;6.00;101859.00;;;;5037996;28;20287;-70
2023/12/19 02:13:06;;;;;;;12.77;9.13;;;;;6.10;101861.00;;;;5041075;28;20302;-70
2023/12/19 02:15:53;;;;;;;23.77;9.30;;;;;6.00;101849.00;;;;5044389;28;20231;-68
2023/12/19 02:18:39;;;;;;;16.03;8.80;;;;;6.00;101853.00;;;;5030777;28;20741;-70
2023/12/19 02:21:28;;;;;;;16.83;9.30;;;;;6.00;101841.00;;;;5043858;28;20302;-70
2023/12/19 02:24:15;;;;;;;17.87;8.60;;;;;6.10;101850.00;;;;5041321;28;20248;-70
2023/12/19 02:27:02;;;;;;;16.70;8.67;;;;;6.10;101858.00;;;;5047547;28;20307;-71
2023/12/19 02:29:49;;;;;;;13.90;7.93;;;;;6.00;101838.00;;;;5046532;28;20228;-70
2023/12/19 02:32:36;;;;;;;16.50;7.90;;;;;6.00;101840.00;;;;5045116;28;20236;-69
2023/12/19 02:35:22;;;;;;;20.10;8.93;;;;;6.00;101839.00;;;;5041133;28;20969;-70
2023/12/19 02:38:08;;;;;;;18.63;9.50;;;;;6.00;101835.00;;;;5040250;28;20428;-70
2023/12/19 02:40:57;;;;;;;18.53;8.57;;;;;6.00;101830.00;;;;5041364;28;20291;-67
2023/12/19 02:43:43;;;;;;;15.33;8.30;;;;;6.10;101820.00;;;;5038086;28;20347;-69
2023/12/19 02:46:40;;;;;;;19.40;8.93;;;;;6.10;101820.00;;;;5044495;28;20323;-69
2023/12/19 02:49:26;;;;;;;20.57;9.13;;;;;6.00;101829.00;;;;5041890;28;20232;-70
2023/12/19 02:52:13;;;;;;;20.67;9.63;;;;;6.00;101822.00;;;;5045097;28;20232;-70
2023/12/19 02:54:59;;;;;;;21.63;8.97;;;;;6.00;101807.00;;;;5042960;28;20236;-69
2023/12/19 02:57:47;;;;;;;19.73;9.70;;;;;6.00;101795.00;;;;5042284;28;20232;-69
2023/12/19 03:00:33;;;;;;;19.50;9.17;;;;;6.00;101785.00;;;;5036140;28;20237;-69
2023/12/19 03:03:20;;;;;;;19.07;8.87;;;;;6.00;101780.00;;;;5043870;28;20216;-70
2023/12/19 03:06:07;;;;;;;17.43;9.20;;;;;6.10;101779.00;;;;5040331;28;20825;-69
2023/12/19 03:08:57;;;;;;;15.83;8.93;;;;;6.10;101794.00;;;;5047271;28;20241;-69
2023/12/19 03:11:58;;;;;;;18.60;8.73;;;;;6.00;101781.00;;;;5045670;28;20236;-70
2023/12/19 03:14:46;;;;;;;17.00;8.33;;;;;6.00;101775.00;;;;5044818;28;20817;-70
2023/12/19 03:17:32;;;;;;;17.80;8.93;;;;;6.00;101751.00;;;;5045101;28;20272;-67
2023/12/19 03:20:19;;;;;;;15.83;8.10;;;;;6.00;101741.00;;;;5039301;28;20310;-69
2023/12/19 03:23:06;;;;;;;19.63;9.00;;;;;6.00;101743.00;;;;5033203;28;20224;-70
2023/12/19 03:25:52;;;;;;;20.07;9.07;;;;;6.00;101744.00;;;;5042709;28;20244;-68
2023/12/19 03:28:38;;;;;;;16.60;7.77;;;;;6.00;101743.00;;;;5035312;28;20240;-70
2023/12/19 03:31:26;;;;;;;15.37;8.70;;;;;6.00;101745.00;;;;5039408;28;20220;-69
2023/12/19 03:34:12;;;;;;;19.40;10.10;;;;;6.10;101740.00;;;;5045510;28;20419;-70
2023/12/19 03:36:58;;;;;;;21.97;9.67;;;;;6.10;101757.00;;;;5042236;28;20255;-70
2023/12/19 03:39:45;;;;;;;14.43;8.53;;;;;6.20;101753.00;;;;5045505;28;20351;-72
2023/12/19 03:42:31;;;;;;;19.27;8.20;;;;;6.10;101750.00;;;;5041224;28;20237;-70
2023/12/19 03:45:25;;;;;;;18.83;9.23;;;;;6.10;101735.00;;;;5044654;28;20807;-69
2023/12/19 03:48:13;;;;;;;15.90;8.43;;;;;6.20;101728.00;;;;5043861;28;20346;-67
2023/12/19 03:50:59;;;;;;;17.97;8.97;;;;;6.20;101714.00;;;;5042285;28;20244;-74
2023/12/19 03:53:46;;;;;;;17.80;9.53;;;;;6.20;101716.00;;;;5039583;28;20336;-72
2023/12/19 03:56:32;;;;;;;18.20;9.47;;;;;6.10;101719.00;;;;5040907;28;20299;-70
2023/12/19 03:59:18;;;;;;;19.03;8.40;;;;;6.20;101703.00;;;;5045047;28;20240;-70
2023/12/19 04:02:05;;;;;;;12.17;7.60;;;;;6.20;101703.00;;;;5044480;28;20228;-69
2023/12/19 04:04:52;;;;;;;14.70;7.77;;;;;6.20;101692.00;;;;5052940;28;20235;-70
2023/12/19 04:07:39;;;;;;;14.00;7.23;;;;;6.20;101693.00;;;;5050735;28;20239;-70
2023/12/19 04:10:25;;;;;;;15.00;8.03;;;;;6.20;101681.00;;;;5046726;28;20233;-69
2023/12/19 04:13:12;;;;;;;13.53;6.23;;;;;6.20;101688.00;;;;5041984;28;20355;-69
2023/12/19 04:15:58;;;;;;;13.93;6.13;;;;;6.10;101671.00;;;;5036849;28;20241;-67
2023/12/19 04:18:44;;;;;;;16.63;7.10;;;;;6.20;101672.00;;;;5041330;28;20518;-69
2023/12/19 04:21:32;;;;;;;15.53;6.97;;;;;6.20;101651.00;;;;5052831;28;20228;-67
2023/12/19 04:24:20;;;;;;;13.43;6.93;;;;;6.30;101659.00;;;;5029723;28;20757;-69
2023/12/19 04:27:07;;;;;;;13.90;8.43;;;;;6.20;101657.00;;;;5045053;28;20255;-69
2023/12/19 04:29:55;;;;;;;11.87;7.50;;;;;6.30;101653.00;;;;5042484;28;20244;-69
2023/12/19 04:32:42;;;;;;;14.27;7.63;;;;;6.30;101655.00;;;;5043283;28;20236;-70
2023/12/19 04:35:29;;;;;;;15.00;7.93;;;;;6.30;101646.00;;;;5043977;28;20294;-71
2023/12/19 04:38:16;;;;;;;13.50;7.67;;;;;6.40;101657.00;;;;5044741;28;20229;-70
2023/12/19 04:41:04;;;;;;;14.53;7.60;;;;;6.40;101647.00;;;;5050071;28;20252;-70
2023/12/19 04:43:50;;;;;;;12.77;7.33;;;;;6.40;101646.00;;;;5035963;28;20229;-70
2023/12/19 04:46:36;;;;;;;11.93;6.33;;;;;6.40;101650.00;;;;5043199;28;20303;-70
2023/12/19 04:49:23;;;;;;;15.17;7.20;;;;;6.40;101651.00;;;;5038153;28;20267;-69
2023/12/19 04:52:10;;;;;;;10.23;6.27;;;;;6.30;101645.00;;;;5043816;28;20236;-67
2023/12/19 04:54:58;;;;;;;11.77;6.57;;;;;6.30;101640.00;;;;5042680;28;20293;-69
2023/12/19 04:57:44;;;;;;;11.63;6.50;;;;;6.40;101631.00;;;;5044648;28;20228;-68
2023/12/19 05:00:31;;;;;;;12.33;6.77;;;;;6.30;101625.00;;;;5043762;28;20240;-71
2023/12/19 05:03:17;;;;;;;11.37;6.40;;;;;6.30;101625.00;;;;5035153;28;20360;-70
2023/12/19 05:06:04;;;;;;;9.03;6.43;;;;;6.30;101614.00;;;;5042704;28;20237;-71
2023/12/19 05:08:50;;;;;;;12.73;6.70;;;;;6.40;101597.00;;;;5043562;28;20265;-70
2023/12/19 05:11:38;;;;;;;11.77;6.87;;;;;6.40;101583.00;;;;5044368;28;20240;-70
2023/12/19 05:14:24;;;;;;;11.50;6.47;;;;;6.40;101589.00;;;;5037138;28;20736;-69
2023/12/19 05:17:11;;;;;;;11.40;6.40;;;;;6.40;101592.00;;;;5042869;28;20233;-70
2023/12/19 05:19:57;;;;;;;10.77;5.93;;;;;6.40;101566.00;;;;5043792;28;20733;-68
2023/12/19 05:22:44;;;;;;;11.77;6.73;;;;;6.40;101583.00;;;;5043781;28;20231;-70
2023/12/19 05:25:31;;;;;;;11.47;6.30;;;;;6.40;101575.00;;;;5038761;28;20305;-69
2023/12/19 05:28:18;;;;;;;12.63;5.83;;;;;6.40;101582.00;;;;5046058;28;20351;-69
2023/12/19 05:31:05;;;;;;;9.33;5.87;;;;;6.30;101573.00;;;;5039769;28;20260;-69
2023/12/19 05:33:52;;;;;;;9.10;5.63;;;;;6.30;101578.00;;;;5035307;28;20233;-66
2023/12/19 05:36:45;;;;;;;9.83;6.50;;;;;6.40;101586.00;;;;5049054;28;20251;-71
2023/12/19 05:39:32;;;;;;;10.13;5.80;;;;;6.40;101589.00;;;;5033793;28;20614;-72
2023/12/19 05:42:19;;;;;;;10.77;5.73;;;;;6.40;101588.00;;;;5041184;28;20229;-68
2023/12/19 05:45:10;;;;;;;8.50;5.30;;;;;6.30;101578.00;;;;5048780;28;20232;-69
2023/12/19 05:47:56;;;;;;;10.33;5.67;;;;;6.30;101574.00;;;;5043905;28;20236;-68
2023/12/19 05:50:43;;;;;;;8.03;5.73;;;;;6.30;101572.00;;;;5035136;28;20231;-69
2023/12/19 05:53:29;;;;;;;11.10;5.70;;;;;6.40;101575.00;;;;5043798;28;20267;-70
2023/12/19 05:56:16;;;;;;;11.47;5.67;;;;;6.40;101570.00;;;;5038950;28;20232;-68
2023/12/19 05:59:03;;;;;;;9.90;6.50;;;;;6.40;101561.00;;;;5037625;28;20228;-70
2023/12/19 06:01:51;;;;;;;9.77;6.43;;;;;6.40;101569.00;;;;5036540;28;20232;-71
2023/12/19 06:04:37;;;;;;;8.80;6.00;;;;;6.40;101564.00;;;;5038237;28;20278;-70
2023/12/19 06:07:24;;;;;;;12.63;6.40;;;;;6.40;101555.00;;;;5043311;28;20216;-69
2023/12/19 06:10:12;;;;;;;9.57;5.87;;;;;6.50;101549.00;;;;5040226;28;20601;-70
2023/12/19 06:13:00;;;;;;;7.90;5.53;;;;;6.50;101545.00;;;;5040030;28;20243;-70
2023/12/19 06:15:46;;;;;;;10.33;5.50;;;;;6.50;101544.00;;;;5038959;28;20241;-69
2023/12/19 06:18:34;;;;;;;11.23;6.37;;;;;6.50;101534.00;;;;5037576;28;20747;-69
2023/12/19 06:21:21;;;;;;;11.10;6.73;;;;;6.50;101532.00;;;;5029053;28;20233;-69
2023/12/19 06:24:08;;;;;;;11.50;5.97;;;;;6.60;101539.00;;;;5035911;28;20356;-71
2023/12/19 06:26:54;;;;;;;9.87;5.37;;;;;6.60;101530.00;;;;5043891;28;20272;-73
2023/12/19 06:29:41;;;;;;;9.90;5.97;;;;;6.60;101544.00;;;;5038198;28;20741;-70
2023/12/19 06:32:27;;;;;;;14.73;7.10;;;;;6.60;101535.00;;;;5032765;28;20232;-71
2023/12/19 06:35:15;;;;;;;11.30;6.93;;;;;6.70;101544.00;;;;5036331;28;20237;-71
2023/12/19 06:38:01;;;;;;;13.60;7.57;;;;;6.60;101537.00;;;;5048222;28;20870;-71
2023/12/19 06:40:48;;;;;;;12.77;6.17;;;;;6.70;101543.00;;;;5034947;28;20297;-69
2023/12/19 06:43:34;;;;;;;11.03;6.47;;;;;6.70;101531.00;;;;5037098;28;20233;-72
2023/12/19 06:46:21;;;;;;;10.40;6.67;;;;;6.60;101541.00;;;;5038768;28;20347;-71
2023/12/19 06:49:08;;;;;;;13.37;7.33;;;;;6.60;101538.00;;;;5051322;28;20260;-72
2023/12/19 06:51:56;;;;;;;12.40;6.40;;;;;6.70;101532.00;;;;5046727;28;20266;-70
2023/12/19 06:54:43;;;;;;;13.07;8.40;;;;;6.70;101526.00;;;;5046088;28;20236;-72
2023/12/19 06:57:29;;;;;;;14.83;7.87;;;;;6.60;101526.00;;;;5041946;28;20237;-70
2023/12/19 07:00:16;;;;;;;15.63;8.00;;;;;6.70;101511.00;;;;5045759;28;20360;-66
2023/12/19 07:03:04;;;;;;;15.60;7.90;;;;;6.70;101511.00;;;;5043482;28;20230;-69
2023/12/19 07:05:51;;;;;;;15.60;7.83;;;;;6.70;101502.00;;;;5050398;28;20354;-73
2023/12/19 07:08:39;;;;;;;15.50;9.20;;;;;6.90;101496.00;;;;5038919;28;20931;-70
2023/12/19 07:11:32;;;;;;;21.83;11.27;;;;;6.90;101491.00;;;;5041285;28;20252;-70
2023/12/19 07:14:18;;;;;;;19.83;9.87;;;;;7.00;101492.00;;;;5039653;28;20236;-71
2023/12/19 07:17:07;;;;;;;25.23;10.37;;;;;7.10;101484.00;;;;5035404;28;20658;-71
2023/12/19 07:19:54;;;;;;;20.73;10.73;;;;;7.00;101483.00;;;;5040805;28;20314;-72
2023/12/19 07:22:41;;;;;;;21.57;12.37;;;;;7.00;101502.00;;;;5036703;28;20232;-70
2023/12/19 07:25:29;;;;;;;25.90;11.90;;;;;7.10;101514.00;;;;5030575;28;20230;-71
2023/12/19 07:28:16;;;;;;;22.40;12.50;;;;;6.90;101512.00;;;;5044780;28;20229;-71
2023/12/19 07:31:03;;;;;;;23.57;12.40;;;;;6.90;101494.00;;;;5040467;28;20232;-69
2023/12/19 07:33:51;;;;;;;23.70;12.10;;;;;6.90;101505.00;;;;5046435;28;20227;-71
2023/12/19 07:36:38;;;;;;;24.40;12.73;;;;;6.90;101497.00;;;;5039556;28;20240;-71
2023/12/19 07:39:24;;;;;;;22.23;11.97;;;;;6.90;101490.00;;;;5045108;28;20361;-72
2023/12/19 07:42:12;;;;;;;23.77;11.93;;;;;7.00;101493.00;;;;5044976;28;20245;-71
2023/12/19 07:44:59;;;;;;;17.80;10.13;;;;;7.00;101500.00;;;;5045603;28;20305;-70
2023/12/19 07:47:45;;;;;;;22.40;11.23;;;;;7.00;101506.00;;;;5039888;28;20733;-71
2023/12/19 07:50:31;;;;;;;19.60;9.60;;;;;7.00;101505.00;;;;5032936;28;20302;-70
2023/12/19 07:53:18;;;;;;;24.70;11.60;;;;;7.00;101502.00;;;;5043543;28;20229;-73
2023/12/19 07:56:06;;;;;;;20.13;11.10;;;;;7.00;101500.00;;;;5043040;28;20245;-71
2023/12/19 07:58:54;;;;;;;19.30;10.93;;;;;7.10;101506.00;;;;5044162;28;20253;-71
2023/12/19 08:01:41;;;;;;;21.27;12.43;;;;;7.00;101488.00;;;;5037911;28;20306;-71
2023/12/19 08:04:28;;;;;;;20.17;10.57;;;;;7.00;101493.00;;;;5044100;28;20223;-70
2023/12/19 08:07:14;;;;;;;24.60;11.10;;;;;7.10;101498.00;;;;5042565;28;21850;-71
2023/12/19 08:10:03;;;;;;;19.53;11.03;;;;;7.10;101477.00;;;;5041796;28;20738;-71
2023/12/19 08:12:52;;;;;;;21.70;10.97;;;;;7.10;101482.00;;;;5042918;28;20317;-69
2023/12/19 08:15:40;;;;;;;23.30;11.43;;;;;7.10;101483.00;;;;5038547;28;20351;-70
2023/12/19 08:18:27;;;;;;;22.03;11.90;;;;;7.10;101474.00;;;;5040087;28;20403;-71
2023/12/19 08:21:13;;;;;;;24.93;11.33;;;;;7.20;101470.00;;;;5041973;28;20277;-71
2023/12/19 08:23:59;;;;;;;21.77;11.23;;;;;7.20;101462.00;;;;5037987;28;20824;-70
2023/12/19 08:26:50;;;;;;;24.73;12.80;;;;;7.10;101473.00;;;;5038194;28;20240;-70
2023/12/19 08:29:36;;;;;;;23.03;11.83;;;;;7.10;101486.00;;;;5035094;28;20249;-72
2023/12/19 08:32:27;;;;;;;19.73;10.97;;;;;7.20;101482.00;;;;5040875;28;20756;-71
2023/12/19 08:35:13;;;;;;;22.13;10.87;;;;;7.20;101476.00;;;;5042092;28;20295;-68
2023/12/19 08:38:00;;;;;;;26.60;12.63;;;;;7.20;101472.00;;;;5045284;28;20326;-72
2023/12/19 08:40:46;;;;;;;22.17;11.83;;;;;7.20;101447.00;;;;5037938;28;20244;-72
2023/12/19 08:43:33;;;;;;;26.47;12.33;;;;;7.20;101455.00;;;;5037679;28;20241;-71
2023/12/19 08:46:19;;;;;;;22.57;11.13;;;;;7.20;101445.00;;;;5042307;28;20232;-69
2023/12/19 08:49:07;;;;;;;20.40;11.87;;;;;7.30;101444.00;;;;5046085;28;20241;-70
2023/12/19 08:51:54;;;;;;;23.30;12.23;;;;;7.30;101434.00;;;;5037418;28;20241;-70
2023/12/19 08:54:41;;;;;;;26.23;10.83;;;;;7.30;101445.00;;;;5039898;28;20300;-71
2023/12/19 08:57:27;;;;;;;19.63;10.50;;;;;7.30;101433.00;;;;5043921;28;20283;-71
2023/12/19 09:00:16;;;;;;;29.37;12.40;;;;;7.30;101442.00;;;;5044385;28;20248;-71
2023/12/19 09:03:05;;;;;;;22.30;11.80;;;;;7.40;101431.00;;;;5039449;28;20239;-71
2023/12/19 09:05:53;;;;;;;21.73;11.83;;;;;7.30;101419.00;;;;5042170;28;20240;-71
2023/12/19 09:08:39;;;;;;;19.10;11.13;;;;;7.30;101425.00;;;;5040870;28;20224;-71
2023/12/19 09:11:26;;;;;;;20.40;10.87;;;;;7.40;101420.00;;;;5043088;28;20230;-72
2023/12/19 09:14:15;;;;;;;20.87;12.23;;;;;7.40;101426.00;;;;5040223;28;20229;-72
2023/12/19 09:17:02;;;;;;;22.33;10.23;;;;;7.40;101426.00;;;;5041167;28;20311;-72
2023/12/19 09:19:49;;;;;;;18.30;9.77;;;;;7.50;101408.00;;;;5037948;28;20228;-72
2023/12/19 09:22:36;;;;;;;20.00;10.73;;;;;7.40;101405.00;;;;5041426;28;21473;-71
2023/12/19 09:25:23;;;;;;;16.63;9.67;;;;;7.40;101393.00;;;;5036306;28;20231;-69
2023/12/19 09:28:09;;;;;;;16.73;9.03;;;;;7.40;101391.00;;;;5041168;28;20370;-72
2023/12/19 09:30:56;;;;;;;22.40;10.83;;;;;7.40;101399.00;;;;5040792;28;20225;-71
2023/12/19 09:33:42;;;;;;;18.63;9.47;;;;;7.40;101383.00;;;;5037804;28;20226;-70
2023/12/19 09:36:29;;;;;;;16.23;8.93;;;;;7.50;101403.00;;;;5041155;28;20315;-72
2023/12/19 09:39:17;;;;;;;18.47;10.00;;;;;7.50;101391.00;;;;5040287;28;20233;-71
2023/12/19 09:42:03;;;;;;;17.67;9.00;;;;;7.40;101392.00;;;;5037253;28;20289;-72
2023/12/19 09:44:51;;;;;;;15.13;9.17;;;;;7.50;101393.00;;;;5042139;28;20237;-72
2023/12/19 09:47:40;;;;;;;18.43;9.63;;;;;7.50;101389.00;;;;5041984;28;20245;-71
2023/12/19 09:50:28;;;;;;;17.77;8.97;;;;;7.50;101386.00;;;;5037926;28;20746;-71
2023/12/19 09:53:18;;;;;;;16.00;9.57;;;;;7.50;101379.00;;;;5044751;28;20228;-71
2023/12/19 09:56:09;;;;;;;15.43;8.77;;;;;7.50;101381.00;;;;5038131;28;20295;-71
2023/12/19 09:58:56;;;;;;;17.40;10.10;;;;;7.60;101370.00;;;;5045758;28;20451;-72
2023/12/19 10:01:42;;;;;;;20.27;10.60;;;;;7.50;101370.00;;;;5049775;28;20776;-71
2023/12/19 10:04:29;;;;;;;16.10;9.07;;;;;7.60;101377.00;;;;5036811;28;20272;-71
2023/12/19 10:07:15;;;;;;;12.30;8.20;;;;;7.60;101387.00;;;;5043360;28;20231;-71
2023/12/19 10:10:03;;;;;;;15.23;9.37;;;;;7.60;101364.00;;;;5045029;28;20294;-68
2023/12/19 10:12:51;;;;;;;19.10;8.90;;;;;7.60;101363.00;;;;5035595;28;20222;-71
2023/12/19 10:15:43;;;;;;;23.17;9.03;;;;;7.60;101350.00;;;;5037577;28;20240;-71
2023/12/19 10:18:29;;;;;;;15.90;9.20;;;;;7.60;101341.00;;;;5041977;28;20229;-70
2023/12/19 10:21:31;;;;;;;14.70;8.77;;;;;7.60;101349.00;;;;5041739;28;20226;-72
2023/12/19 10:24:26;;;;;;;15.00;8.20;;;;;7.60;101349.00;;;;5046824;28;20233;-71
2023/12/19 10:27:14;;;;;;;12.57;8.40;;;;;7.60;101326.00;;;;5035098;28;20236;-71
2023/12/19 10:30:16;;;;;;;11.90;7.63;;;;;7.60;101332.00;;;;5048290;28;20661;-71
2023/12/19 10:33:03;;;;;;;16.60;8.20;;;;;7.60;101325.00;;;;5041524;28;20228;-71
2023/12/19 10:35:50;;;;;;;29.23;13.07;;;;;7.60;101314.00;;;;5039453;28;20241;-72
2023/12/19 10:38:48;;;;;;;13.60;8.47;;;;;7.60;101306.00;;;;5041846;28;21472;-73
2023/12/19 10:41:37;;;;;;;13.20;6.60;;;;;7.60;101300.00;;;;5043675;28;20225;-71
2023/12/19 10:44:24;;;;;;;14.33;6.67;;;;;7.60;101303.00;;;;5043942;28;20237;-71
2023/12/19 10:47:12;;;;;;;10.27;6.37;;;;;7.60;101295.00;;;;5052398;28;20250;-72
2023/12/19 10:49:58;;;;;;;14.80;7.67;;;;;7.70;101290.00;;;;5045272;28;20230;-71
2023/12/19 10:52:49;;;;;;;10.33;6.17;;;;;7.60;101295.00;;;;5043712;28;20256;-72
2023/12/19 10:55:45;;;;;;;10.33;6.73;;;;;7.60;101280.00;;;;5047688;28;20240;-71
2023/12/19 10:58:34;;;;;;;13.20;7.83;;;;;7.60;101280.00;;;;5046506;28;20234;-73
2023/12/19 11:01:23;;;;;;;11.80;6.40;;;;;7.70;101278.00;;;;5044419;28;20358;-70
2023/12/19 11:04:20;;;;;;;9.93;6.03;;;;;7.70;101274.00;;;;5043020;28;20720;-71
2023/12/19 11:07:11;;;;;;;13.07;7.40;;;;;7.70;101269.00;;;;5039432;28;20246;-72
2023/12/19 11:10:04;;;;;;;8.60;5.77;;;;;7.80;101265.00;;;;5039442;28;20225;-72
2023/12/19 11:12:53;;;;;;;10.03;5.73;;;;;7.70;101256.00;;;;5048603;28;20227;-73
2023/12/19 11:15:45;;;;;;;11.27;6.87;;;;;7.70;101254.00;;;;5040453;28;20619;-71
2023/12/19 11:18:35;;;;;;;9.70;5.90;;;;;7.80;101244.00;;;;5041192;28;20237;-72
2023/12/19 11:21:32;;;;;;;12.20;6.60;;;;;7.80;101234.00;;;;5043902;28;20230;-71
2023/12/19 11:24:26;;;;;;;14.37;6.80;;;;;7.80;101239.00;;;;5039683;28;20236;-71
2023/12/19 11:27:18;;;;;;;8.20;5.97;;;;;7.80;101225.00;;;;5040452;28;20241;-71
2023/12/19 11:30:05;;;;;;;13.63;6.73;;;;;7.80;101228.00;;;;5042898;28;20238;-69
2023/12/19 11:32:52;;;;;;;10.30;6.97;;;;;7.80;101222.00;;;;5047208;28;20242;-72
2023/12/19 11:35:38;;;;;;;9.27;6.23;;;;;7.90;101231.00;;;;5046999;28;20241;-71
2023/12/19 11:38:26;;;;;;;9.30;5.60;;;;;7.90;101207.00;;;;5041024;28;20238;-72
2023/12/19 11:41:36;;;;;;;10.30;7.00;;;;;7.90;101218.00;;;;5040004;28;20237;-70
2023/12/19 11:44:33;;;;;;;12.63;5.70;;;;;8.00;101211.00;;;;5046631;28;20306;-72
2023/12/19 11:47:20;;;;;;;9.67;5.87;;;;;8.00;101213.00;;;;5040820;28;20923;-72
2023/12/19 11:50:07;;;;;;;10.60;6.27;;;;;8.00;101204.00;;;;5043932;28;20222;-71
2023/12/19 11:52:53;;;;;;;8.20;5.67;;;;;7.90;101202.00;;;;5038865;28;20239;-71
2023/12/19 11:55:41;;;;;;;10.83;6.93;;;;;7.90;101199.00;;;;5043862;28;20378;-72
2023/12/19 11:58:27;;;;;;;10.90;5.47;;;;;7.90;101197.00;;;;5044892;28;20295;-71
2023/12/19 12:01:15;;;;;;;5.93;4.63;;;;;7.90;101197.00;;;;5037918;28;20237;-70
2023/12/19 12:04:06;;;;;;;7.70;5.17;;;;;7.90;101188.00;;;;5041428;28;20241;-70
2023/12/19 12:06:56;;;;;;;5.97;3.73;;;;;7.90;101175.00;;;;5045198;28;20331;-70
2023/12/19 12:09:43;;;;;;;12.53;6.47;;;;;7.90;101159.00;;;;5039803;28;20301;-71
2023/12/19 12:12:33;;;;;;;6.60;5.13;;;;;7.90;101160.00;;;;5033723;28;20308;-73
2023/12/19 12:15:21;;;;;;;5.63;3.53;;;;;8.00;101145.00;;;;5042255;28;20622;-73
2023/12/19 12:18:09;;;;;;;6.70;3.80;;;;;8.00;101153.00;;;;5032906;28;20362;-71
2023/12/19 12:21:05;;;;;;;5.90;4.27;;;;;8.00;101153.00;;;;5031995;28;20237;-73
2023/12/19 12:23:53;;;;;;;7.07;3.90;;;;;7.90;101136.00;;;;5039243;28;20630;-74
2023/12/19 12:26:39;;;;;;;5.33;3.97;;;;;7.90;101129.00;;;;5044894;28;20233;-72
2023/12/19 12:29:36;;;;;;;5.73;3.93;;;;;8.00;101122.00;;;;5039970;28;20235;-72
2023/12/19 12:32:25;;;;;;;4.67;3.40;;;;;7.90;101129.00;;;;5042885;28;20239;-72
2023/12/19 12:35:26;;;;;;;6.67;3.83;;;;;7.90;101122.00;;;;5038748;28;20231;-71
2023/12/19 12:38:18;;;;;;;5.27;3.90;;;;;7.90;101120.00;;;;5031615;28;20658;-70
2023/12/19 12:41:07;;;;;;;6.57;3.80;;;;;7.90;101114.00;;;;5031916;28;21157;-72
2023/12/19 12:43:55;;;;;;;6.03;3.63;;;;;7.90;101105.00;;;;5039725;28;20246;-72
2023/12/19 12:46:46;;;;;;;6.13;3.57;;;;;7.90;101095.00;;;;5039593;28;20239;-73
2023/12/19 12:49:33;;;;;;;5.57;3.93;;;;;7.90;101076.00;;;;5044098;28;20276;-72
2023/12/19 12:52:20;;;;;;;4.93;3.97;;;;;7.90;101068.00;;;;5041174;28;20801;-71
2023/12/19 12:55:12;;;;;;;7.00;4.60;;;;;7.90;101062.00;;;;5037305;28;20688;-69
2023/12/19 12:58:02;;;;;;;7.13;4.87;;;;;8.00;101061.00;;;;5047884;28;20224;-71
2023/12/19 13:00:48;;;;;;;6.17;4.03;;;;;8.00;101069.00;;;;5045313;28;20233;-73
2023/12/19 13:03:36;;;;;;;5.17;3.27;;;;;8.00;101062.00;;;;5047105;28;20238;-72
2023/12/19 13:06:23;;;;;;;6.30;4.40;;;;;8.00;101059.00;;;;5039082;28;20233;-72
2023/12/19 13:09:13;;;;;;;6.00;3.90;;;;;8.00;101049.00;;;;5048403;28;20604;-68
2023/12/19 13:12:01;;;;;;;6.73;4.70;;;;;8.00;101061.00;;;;5037333;28;20225;-73
2023/12/19 13:14:47;;;;;;;11.80;4.27;;;;;8.00;101040.00;;;;5041627;28;20229;-73
2023/12/19 13:17:33;;;;;;;7.03;4.37;;;;;8.00;101049.00;;;;5035057;28;20295;-69
2023/12/19 13:20:21;;;;;;;6.47;4.60;;;;;8.00;101049.00;;;;5041518;28;20245;-70
2023/12/19 13:23:07;;;;;;;6.33;4.83;;;;;8.00;101038.00;;;;5045620;28;20235;-70
2023/12/19 13:25:56;;;;;;;6.70;3.80;;;;;8.00;101030.00;;;;5043213;28;20745;-70
2023/12/19 13:28:43;;;;;;;6.93;4.77;;;;;7.90;101038.00;;;;5033726;28;20677;-72
2023/12/19 13:31:31;;;;;;;5.50;3.67;;;;;8.00;101029.00;;;;5036607;28;20234;-67
2023/12/19 13:34:17;;;;;;;6.93;4.73;;;;;8.00;101030.00;;;;5037505;28;20230;-69
2023/12/19 13:37:06;;;;;;;9.57;4.20;;;;;8.00;101035.00;;;;5043294;28;20727;-71
2023/12/19 13:39:53;;;;;;;7.30;4.00;;;;;7.90;101030.00;;;;5044117;28;20238;-71
2023/12/19 13:42:40;;;;;;;5.23;4.23;;;;;7.90;101019.00;;;;5039674;28;20721;-71
2023/12/19 13:45:30;;;;;;;4.73;3.70;;;;;8.00;101029.00;;;;5043338;28;20238;-68
2023/12/19 13:48:16;;;;;;;6.97;4.07;;;;;8.00;101026.00;;;;5043398;28;20220;-69
2023/12/19 13:51:04;;;;;;;17.97;8.10;;;;;7.90;101022.00;;;;5042496;28;20960;-71